MV Alemania — V2OG7 — position and weather

sailwx.info

Track history (hours):
 
Tides and Currents Weather Stations Pressure Air Temp Water Temp Dewpoint Dewpoint Depression Visibility Wind Speed Wind Dir Waves Ship Positions

MV Alemania

Last reported at 2014-Oct-31 04:24 UTC. Time now 2014-Oct-31 06:20 UTC.
Position N 36°50' E 023°33'.

Length 133 m; draft 8.3 m.

Type: Cargo ship. MMSI: 304010613.

Date/timePositionNaut miles runAvg speedWind from/ knotsBaromVisibWave heightAir tempDewpointWater temp
2014-Oct-31 04:24N 36°50' E 023°33'4311.2
2014-Oct-31 00:33N 37°33' E 023°41'1111.1
2014-Oct-30 23:33N 37°43' E 023°40'1111.0
2014-Oct-30 22:33N 37°54' E 023°36'3 3.4
2014-Oct-30 21:32N 37°57' E 023°35'0 0.0
2014-Oct-30 20:33N 37°57' E 023°35'0 0.0
2014-Oct-30 19:33N 37°57' E 023°35'0 0.0
2014-Oct-30 18:32N 37°57' E 023°35'0 0.0
2014-Oct-30 17:32N 37°57' E 023°35'0 0.0
2014-Oct-30 16:26N 37°57' E 023°35'0 0.0
2014-Oct-30 15:28N 37°57' E 023°35'0 0.0
2014-Oct-30 14:28N 37°57' E 023°35'0 0.0
2014-Oct-30 13:33N 37°57' E 023°35'0 0.0
2014-Oct-30 12:33N 37°57' E 023°35'0 0.0
2014-Oct-30 11:32N 37°57' E 023°35'0 0.0
2014-Oct-30 10:32N 37°57' E 023°35'0 0.0
2014-Oct-30 09:32N 37°57' E 023°35'0 0.0
2014-Oct-30 08:31N 37°57' E 023°35'0 0.0
2014-Oct-30 07:31N 37°57' E 023°35'0 0.0
2014-Oct-30 06:30N 37°57' E 023°35'1 1.1
2014-Oct-30 05:33N 37°57' E 023°36'3 2.8
2014-Oct-30 04:33N 37°54' E 023°37'9 9.0
2014-Oct-30 03:33N 37°46' E 023°42'9 9.3
2014-Oct-30 02:33N 37°37' E 023°47'48 9.4
2014-Oct-29 21:29N 36°51' E 023°34'44 8.7
2014-Oct-29 16:22N 36°24' E 022°50'  
2014-Oct-21 10:08N 36°48' E 010°16'  
Track history (hours):
 
Tides and Currents Weather Stations Pressure Air Temp Water Temp Dewpoint Dewpoint Depression Visibility Wind Speed Wind Dir Waves Ship Positions

MV Alemania

Last reported at 2014-Oct-31 04:24 UTC. Time now 2014-Oct-31 06:20 UTC.
Position N 36°50' E 023°33'.

Length 133 m; draft 8.3 m.

Type: Cargo ship. MMSI: 304010613.

Date/timePositionNaut miles runAvg speedWind from/ knotsBaromVisibWave heightAir tempDewpointWater temp
2014-Oct-31 04:24N 36°50' E 023°33'4311.2
2014-Oct-31 00:33N 37°33' E 023°41'1111.1
2014-Oct-30 23:33N 37°43' E 023°40'1111.0
2014-Oct-30 22:33N 37°54' E 023°36'3 3.4
2014-Oct-30 21:32N 37°57' E 023°35'0 0.0
2014-Oct-30 20:33N 37°57' E 023°35'0 0.0
2014-Oct-30 19:33N 37°57' E 023°35'0 0.0
2014-Oct-30 18:32N 37°57' E 023°35'0 0.0
2014-Oct-30 17:32N 37°57' E 023°35'0 0.0
2014-Oct-30 16:26N 37°57' E 023°35'0 0.0
2014-Oct-30 15:28N 37°57' E 023°35'0 0.0
2014-Oct-30 14:28N 37°57' E 023°35'0 0.0
2014-Oct-30 13:33N 37°57' E 023°35'0 0.0
2014-Oct-30 12:33N 37°57' E 023°35'0 0.0
2014-Oct-30 11:32N 37°57' E 023°35'0 0.0
2014-Oct-30 10:32N 37°57' E 023°35'0 0.0
2014-Oct-30 09:32N 37°57' E 023°35'0 0.0
2014-Oct-30 08:31N 37°57' E 023°35'0 0.0
2014-Oct-30 07:31N 37°57' E 023°35'0 0.0
2014-Oct-30 06:30N 37°57' E 023°35'1 1.1
2014-Oct-30 05:33N 37°57' E 023°36'3 2.8
2014-Oct-30 04:33N 37°54' E 023°37'9 9.0
2014-Oct-30 03:33N 37°46' E 023°42'9 9.3
2014-Oct-30 02:33N 37°37' E 023°47'48 9.4
2014-Oct-29 21:29N 36°51' E 023°34'44 8.7
2014-Oct-29 16:22N 36°24' E 022°50'  
2014-Oct-21 10:08N 36°48' E 010°16'  

Dump ship's entire track history